Time;durP1;ratioP1;P1;durP2;ratioP2;P2;SDS_P1;SDS_P2;PMS_P1;PMS_P2;Temp;Humidity;BMP_temperature;BMP_pressure;BME280_temperature;BME280_humidity;BME280_pressure;Samples;Min_cycle;Max_cycle;Signal;HPM_P1;HPM_P2
2024/03/15 00:01:00;;;;;;;100.70;58.40;;;;;;;2.87;100.00;98908.64;108932;1260;60141;-78
2024/03/15 00:03:36;;;;;;;94.90;55.60;;;;;;;2.94;100.00;98904.66;108773;1260;63987;-78
2024/03/15 00:06:03;;;;;;;93.50;55.50;;;;;;;3.01;100.00;98903.52;108900;1260;59064;-77
2024/03/15 00:08:29;;;;;;;96.50;55.40;;;;;;;3.09;100.00;98904.83;108929;1260;58998;-78
2024/03/15 00:10:56;;;;;;;120.50;61.10;;;;;;;3.13;100.00;98899.22;108910;1260;65833;-78
2024/03/15 00:13:22;;;;;;;132.70;59.10;;;;;;;3.18;100.00;98900.46;108916;1260;58950;-77
2024/03/15 00:15:49;;;;;;;127.50;61.20;;;;;;;3.20;100.00;98895.09;108954;1260;59852;-77
2024/03/15 00:18:17;;;;;;;132.80;61.20;;;;;;;3.23;100.00;98897.09;108922;1260;58985;-77
2024/03/15 00:20:45;;;;;;;142.80;57.20;;;;;;;3.26;100.00;98898.39;108896;1260;59176;-77
2024/03/15 00:23:11;;;;;;;144.50;59.50;;;;;;;3.27;100.00;98896.92;108921;1260;66139;-78
2024/03/15 00:25:38;;;;;;;115.30;56.80;;;;;;;3.29;100.00;98894.59;108927;1260;58995;-78
2024/03/15 00:28:04;;;;;;;133.20;54.80;;;;;;;3.28;100.00;98893.36;108907;1260;59203;-77
2024/03/15 00:30:31;;;;;;;125.80;53.40;;;;;;;3.27;100.00;98892.20;108913;1260;59032;-77
2024/03/15 00:32:57;;;;;;;137.70;54.70;;;;;;;3.24;100.00;98886.70;108923;1260;60335;-77
2024/03/15 00:35:24;;;;;;;100.00;53.70;;;;;;;3.23;100.00;98884.62;108892;1260;59316;-76
2024/03/15 00:37:50;;;;;;;122.00;56.10;;;;;;;3.22;100.00;98881.84;108922;1260;59015;-78
2024/03/15 00:40:17;;;;;;;132.00;52.80;;;;;;;3.22;100.00;98879.58;108908;1260;63771;-77
2024/03/15 00:42:43;;;;;;;131.50;54.40;;;;;;;3.24;100.00;98878.64;108908;1260;58928;-77
2024/03/15 00:45:10;;;;;;;126.00;53.30;;;;;;;3.25;100.00;98880.14;108923;1260;58992;-76
2024/03/15 00:47:36;;;;;;;133.90;54.40;;;;;;;3.27;100.00;98879.21;108928;1260;66025;-79
2024/03/15 00:50:03;;;;;;;125.20;54.70;;;;;;;3.28;100.00;98880.37;108907;1260;59115;-78
2024/03/15 00:52:30;;;;;;;116.80;52.60;;;;;;;3.29;100.00;98884.02;108883;1260;62656;-78
2024/03/15 00:54:56;;;;;;;85.30;47.30;;;;;;;3.30;100.00;98880.66;108865;1260;59323;-78
2024/03/15 00:57:23;;;;;;;100.70;56.70;;;;;;;3.30;100.00;98878.03;108916;1260;59135;-78
2024/03/15 00:59:49;;;;;;;121.20;60.10;;;;;;;3.29;100.00;98878.06;108909;1260;59285;-77
2024/03/15 01:02:16;;;;;;;112.30;55.80;;;;;;;3.28;100.00;98873.00;108907;1260;58969;-77
2024/03/15 01:04:42;;;;;;;104.50;54.30;;;;;;;3.27;100.00;98875.49;108891;1260;59226;-78
2024/03/15 01:07:09;;;;;;;94.80;49.50;;;;;;;3.26;100.00;98875.02;108906;1260;58999;-77
2024/03/15 01:09:36;;;;;;;94.60;49.70;;;;;;;3.24;100.00;98870.89;108932;1261;59007;-77
2024/03/15 01:12:02;;;;;;;76.60;46.40;;;;;;;3.23;100.00;98870.59;109005;1260;64834;-78
2024/03/15 01:14:29;;;;;;;92.60;48.40;;;;;;;3.22;100.00;98871.67;108951;1260;60187;-77
2024/03/15 01:16:55;;;;;;;86.00;47.60;;;;;;;3.21;100.00;98871.18;108991;1260;64217;-77
2024/03/15 01:19:24;;;;;;;89.70;47.50;;;;;;;3.20;100.00;98868.23;108771;1260;59152;-77
2024/03/15 01:21:51;;;;;;;80.10;46.70;;;;;;;3.20;100.00;98870.19;108961;1260;59029;-77
2024/03/15 01:24:18;;;;;;;83.90;46.30;;;;;;;3.19;100.00;98868.48;108913;1260;59265;-77
2024/03/15 01:26:44;;;;;;;89.00;47.20;;;;;;;3.18;100.00;98869.92;108946;1260;60148;-77
2024/03/15 01:29:11;;;;;;;99.10;46.70;;;;;;;3.16;100.00;98866.81;108911;1260;59244;-77
2024/03/15 01:31:38;;;;;;;101.80;45.80;;;;;;;3.16;100.00;98865.92;108889;1260;59289;-79
2024/03/15 01:34:05;;;;;;;88.80;43.80;;;;;;;3.15;100.00;98867.04;108871;1260;59020;-76
2024/03/15 01:36:31;;;;;;;88.50;43.90;;;;;;;3.12;100.00;98864.88;107399;1260;1002580;-77
2024/03/15 01:38:58;;;;;;;84.80;42.70;;;;;;;3.09;100.00;98865.67;108937;1260;59194;-77
2024/03/15 01:41:25;;;;;;;93.70;43.90;;;;;;;3.07;100.00;98865.39;108917;1260;59162;-77
2024/03/15 01:43:52;;;;;;;75.50;41.00;;;;;;;3.03;100.00;98867.13;108909;1260;58994;-77
2024/03/15 01:46:18;;;;;;;86.30;41.50;;;;;;;2.99;100.00;98866.77;108916;1260;58900;-77
2024/03/15 01:48:45;;;;;;;92.40;43.40;;;;;;;2.96;100.00;98868.63;108950;1260;59285;-78
2024/03/15 01:51:11;;;;;;;77.50;41.90;;;;;;;2.93;100.00;98863.99;108908;1260;59001;-77
2024/03/15 01:53:39;;;;;;;112.60;43.60;;;;;;;2.92;100.00;98861.60;108927;1260;64073;-77
2024/03/15 01:56:06;;;;;;;87.70;41.80;;;;;;;2.89;100.00;98862.94;108898;1260;58974;-77
2024/03/15 01:58:32;;;;;;;92.60;42.00;;;;;;;2.89;100.00;98864.72;108955;1260;59083;-77
2024/03/15 02:00:59;;;;;;;90.90;40.70;;;;;;;2.88;100.00;98861.40;108918;1260;59328;-78
2024/03/15 02:03:25;;;;;;;109.20;41.90;;;;;;;2.88;100.00;98858.09;108930;1260;59130;-77
2024/03/15 02:05:52;;;;;;;111.80;40.10;;;;;;;2.89;100.00;98856.81;108761;1260;63777;-78
2024/03/15 02:08:19;;;;;;;107.40;41.50;;;;;;;2.90;100.00;98855.36;108915;1260;59033;-77
2024/03/15 02:10:46;;;;;;;124.30;42.50;;;;;;;2.90;100.00;98853.08;108913;1260;58970;-77
2024/03/15 02:13:15;;;;;;;93.10;39.90;;;;;;;2.91;100.00;98855.66;108906;1260;64764;-76
2024/03/15 02:15:42;;;;;;;105.60;41.60;;;;;;;2.93;100.00;98859.25;108933;1260;60121;-78
2024/03/15 02:18:09;;;;;;;96.80;41.30;;;;;;;2.96;100.00;98858.26;108898;1260;63856;-77
2024/03/15 02:20:35;;;;;;;105.30;44.10;;;;;;;2.98;100.00;98858.35;108934;1260;59045;-77
2024/03/15 02:23:03;;;;;;;102.20;43.60;;;;;;;3.00;100.00;98858.63;108919;1260;59079;-77
2024/03/15 02:25:30;;;;;;;80.20;40.70;;;;;;;3.01;100.00;98856.50;108918;1260;65800;-77
2024/03/15 02:27:57;;;;;;;83.10;41.00;;;;;;;3.03;100.00;98859.23;108912;1260;59466;-77
2024/03/15 02:30:25;;;;;;;92.50;43.10;;;;;;;3.05;100.00;98860.76;108129;1260;1002779;-77
2024/03/15 02:32:52;;;;;;;97.40;42.20;;;;;;;3.05;100.00;98857.05;108937;1260;58947;-77
2024/03/15 02:35:19;;;;;;;97.60;42.40;;;;;;;3.03;100.00;98850.98;108900;1260;58918;-78
2024/03/15 02:37:46;;;;;;;97.50;44.50;;;;;;;3.03;100.00;98850.49;108942;1260;64482;-77
2024/03/15 02:40:14;;;;;;;103.40;41.40;;;;;;;3.02;100.00;98849.61;108719;1260;59378;-78
2024/03/15 02:42:42;;;;;;;118.00;41.40;;;;;;;3.02;100.00;98843.63;108165;1260;1003053;-78
2024/03/15 02:45:09;;;;;;;83.70;40.60;;;;;;;3.01;100.00;98847.20;108914;1260;59013;-78
2024/03/15 02:47:38;;;;;;;101.40;41.10;;;;;;;2.98;100.00;98848.19;108919;1260;59021;-76
2024/03/15 02:50:06;;;;;;;106.30;40.10;;;;;;;2.97;100.00;98850.37;108928;1260;64526;-77
2024/03/15 02:52:33;;;;;;;123.40;41.60;;;;;;;2.94;100.00;98854.52;108911;1260;60062;-78
2024/03/15 02:54:59;;;;;;;100.70;40.70;;;;;;;2.90;100.00;98855.71;108907;1260;62824;-78
2024/03/15 02:57:26;;;;;;;87.60;33.70;;;;;;;2.86;100.00;98860.77;108935;1260;59283;-77
2024/03/15 02:59:57;;;;;;;99.10;38.20;;;;;;;2.80;100.00;98863.61;108937;1260;59202;-77
2024/03/15 03:02:23;;;;;;;113.40;41.10;;;;;;;2.76;100.00;98864.33;108932;1260;65684;-77
2024/03/15 03:04:51;;;;;;;108.60;41.40;;;;;;;2.76;100.00;98865.52;108917;1260;59094;-77
2024/03/15 03:07:18;;;;;;;116.20;40.30;;;;;;;2.77;100.00;98868.98;108911;1260;62810;-78
2024/03/15 03:09:46;;;;;;;107.80;40.30;;;;;;;2.77;100.00;98868.81;108743;1259;59151;-76
2024/03/15 03:12:13;;;;;;;89.00;37.10;;;;;;;2.77;100.00;98867.08;108967;1259;59110;-77
2024/03/15 03:14:40;;;;;;;101.60;43.30;;;;;;;2.76;100.00;98865.86;108951;1259;65956;-78
2024/03/15 03:17:07;;;;;;;87.10;41.20;;;;;;;2.76;100.00;98863.27;108984;1260;59078;-77
2024/03/15 03:19:33;;;;;;;95.00;40.40;;;;;;;2.71;100.00;98862.55;108965;1259;63747;-77
2024/03/15 03:22:00;;;;;;;83.20;41.80;;;;;;;2.69;100.00;98866.51;108751;1259;59388;-77
2024/03/15 03:24:26;;;;;;;97.40;43.30;;;;;;;2.69;100.00;98867.05;108964;1259;58960;-78
2024/03/15 03:26:53;;;;;;;83.50;40.10;;;;;;;2.68;100.00;98870.23;108953;1259;59041;-78
2024/03/15 03:29:19;;;;;;;87.20;41.90;;;;;;;2.67;100.00;98872.88;108967;1260;59312;-76
2024/03/15 03:31:46;;;;;;;85.90;40.60;;;;;;;2.67;100.00;98873.41;108957;1259;59010;-76
2024/03/15 03:34:13;;;;;;;117.30;43.30;;;;;;;2.68;100.00;98873.71;108967;1259;58959;-77
2024/03/15 03:36:39;;;;;;;109.80;42.70;;;;;;;2.67;100.00;98870.08;108966;1260;59173;-77
2024/03/15 03:39:08;;;;;;;72.40;39.40;;;;;;;2.67;100.00;98873.60;108942;1260;64755;-77
2024/03/15 03:41:34;;;;;;;84.80;38.20;;;;;;;2.66;100.00;98871.85;108954;1260;60232;-78
2024/03/15 03:44:01;;;;;;;82.90;45.50;;;;;;;2.65;100.00;98874.17;108729;1260;64110;-77
2024/03/15 03:46:28;;;;;;;79.50;41.30;;;;;;;2.64;100.00;98875.98;108930;1260;59393;-77
2024/03/15 03:48:54;;;;;;;87.80;38.80;;;;;;;2.63;100.00;98876.34;108852;1259;59036;-77
2024/03/15 03:51:20;;;;;;;69.70;38.90;;;;;;;2.61;100.00;98877.98;108988;1259;58962;-77
2024/03/15 03:53:47;;;;;;;68.70;40.80;;;;;;;2.60;100.00;98880.66;108983;1259;59016;-77
2024/03/15 03:56:14;;;;;;;84.00;40.00;;;;;;;2.61;100.00;98879.41;108930;1259;59051;-77
2024/03/15 03:58:41;;;;;;;88.50;41.00;;;;;;;2.63;100.00;98879.87;108962;1259;59001;-78
2024/03/15 04:01:07;;;;;;;102.20;38.90;;;;;;;2.63;100.00;98881.62;108976;1259;59310;-78
2024/03/15 04:03:35;;;;;;;102.40;40.00;;;;;;;2.63;100.00;98881.27;108987;1260;66012;-77
2024/03/15 04:06:01;;;;;;;105.40;37.80;;;;;;;2.64;100.00;98878.59;108994;1259;59851;-77
2024/03/15 04:08:28;;;;;;;137.50;38.60;;;;;;;2.63;100.00;98875.13;108936;1259;62605;-77
2024/03/15 04:10:54;;;;;;;114.60;35.40;;;;;;;2.60;100.00;98876.65;108927;1263;58973;-78
2024/03/15 04:13:21;;;;;;;110.50;36.10;;;;;;;2.53;100.00;98878.49;108778;1259;59025;-77
2024/03/15 04:15:49;;;;;;;106.70;36.10;;;;;;;2.46;100.00;98876.43;108972;1259;64826;-78
2024/03/15 04:18:16;;;;;;;103.90;35.50;;;;;;;2.43;100.00;98876.73;108981;1259;59379;-78
2024/03/15 04:20:43;;;;;;;90.00;35.20;;;;;;;2.40;100.00;98874.02;109001;1259;64071;-77
2024/03/15 04:23:09;;;;;;;71.40;35.10;;;;;;;2.37;100.00;98870.10;108949;1260;59070;-77
2024/03/15 04:25:36;;;;;;;71.80;34.10;;;;;;;2.34;100.00;98869.36;108996;1259;59003;-78
2024/03/15 04:28:02;;;;;;;74.90;33.20;;;;;;;2.31;100.00;98866.30;108957;1260;59133;-77
2024/03/15 04:30:30;;;;;;;102.80;36.10;;;;;;;2.27;100.00;98866.79;108824;1260;59835;-77
2024/03/15 04:32:56;;;;;;;75.20;36.30;;;;;;;2.24;100.00;98864.42;108995;1259;62566;-77
2024/03/15 04:35:23;;;;;;;89.80;35.30;;;;;;;2.23;100.00;98865.38;108967;1259;59009;-77
2024/03/15 04:37:49;;;;;;;113.10;36.40;;;;;;;2.22;100.00;98861.72;108962;1260;59064;-77
2024/03/15 04:40:16;;;;;;;84.80;36.60;;;;;;;2.20;100.00;98855.80;108856;1259;59172;-78
2024/03/15 04:42:42;;;;;;;76.70;38.60;;;;;;;2.19;100.00;98856.36;108937;1261;59008;-77
2024/03/15 04:45:09;;;;;;;101.20;38.40;;;;;;;2.19;100.00;98855.84;108969;1259;63906;-77
2024/03/15 04:47:38;;;;;;;85.60;43.50;;;;;;;2.19;100.00;98858.98;108955;1259;58963;-78
2024/03/15 04:50:06;;;;;;;105.40;38.40;;;;;;;2.20;100.00;98859.65;108963;1259;59006;-77
2024/03/15 04:52:33;;;;;;;81.30;39.00;;;;;;;2.20;100.00;98857.56;108970;1259;66132;-77
2024/03/15 04:55:00;;;;;;;78.50;35.60;;;;;;;2.19;100.00;98856.36;108960;1259;58965;-77
2024/03/15 04:57:27;;;;;;;68.20;35.00;;;;;;;2.20;100.00;98856.51;108934;1260;62894;-77
2024/03/15 04:59:54;;;;;;;79.70;35.40;;;;;;;2.18;100.00;98857.63;108973;1259;58957;-77
2024/03/15 05:02:21;;;;;;;64.80;33.80;;;;;;;2.13;100.00;98855.17;108982;1259;59361;-77
2024/03/15 05:04:49;;;;;;;59.30;33.40;;;;;;;2.09;100.00;98857.42;109027;1259;66149;-78
2024/03/15 05:07:15;;;;;;;59.70;34.60;;;;;;;2.08;100.00;98856.77;108925;1259;59836;-77
2024/03/15 05:09:42;;;;;;;59.80;34.00;;;;;;;2.08;100.00;98853.61;108872;1259;59086;-78
2024/03/15 05:12:08;;;;;;;84.60;34.10;;;;;;;2.06;100.00;98855.42;108984;1259;58973;-78
2024/03/15 05:14:38;;;;;;;84.00;35.20;;;;;;;2.05;100.00;98856.14;109005;1260;59056;-79
2024/03/15 05:17:04;;;;;;;69.10;34.80;;;;;;;2.04;100.00;98852.33;108972;1260;75662;-77
2024/03/15 05:19:31;;;;;;;68.10;32.10;;;;;;;2.03;100.00;98853.95;108967;1260;59959;-77
2024/03/15 05:21:58;;;;;;;74.90;33.90;;;;;;;1.98;100.00;98850.62;108959;1259;64183;-77
2024/03/15 05:24:26;;;;;;;73.50;33.40;;;;;;;1.95;100.00;98853.89;108947;1259;58976;-78
2024/03/15 05:26:52;;;;;;;69.30;34.10;;;;;;;1.92;100.00;98857.83;108943;1260;59014;-77
2024/03/15 05:29:19;;;;;;;61.80;32.10;;;;;;;1.92;100.00;98859.23;108956;1259;66142;-78
2024/03/15 05:31:46;;;;;;;67.30;32.60;;;;;;;1.91;100.00;98859.23;108972;1259;59767;-76
2024/03/15 05:34:14;;;;;;;53.50;32.40;;;;;;;1.94;100.00;98863.38;108954;1259;62682;-78
2024/03/15 05:36:41;;;;;;;53.20;33.30;;;;;;;1.99;100.00;98863.20;108951;1259;59036;-79
2024/03/15 05:39:10;;;;;;;63.00;34.50;;;;;;;2.06;100.00;98867.88;108965;1260;59029;-77
2024/03/15 05:41:38;;;;;;;50.40;34.20;;;;;;;2.12;100.00;98868.89;108854;1259;65787;-78
2024/03/15 05:44:05;;;;;;;52.20;34.80;;;;;;;2.18;100.00;98870.96;108967;1260;60170;-77
2024/03/15 05:46:32;;;;;;;55.50;34.10;;;;;;;2.20;100.00;98871.42;108984;1259;64382;-78
2024/03/15 05:49:00;;;;;;;63.10;33.60;;;;;;;2.20;100.00;98874.38;108953;1259;59352;-78
2024/03/15 05:51:27;;;;;;;61.50;34.90;;;;;;;2.23;100.00;98873.25;108955;1259;58992;-78
2024/03/15 05:53:55;;;;;;;57.80;33.60;;;;;;;2.27;100.00;98877.48;108959;1260;65714;-78
2024/03/15 05:56:23;;;;;;;58.20;36.10;;;;;;;2.34;100.00;98873.89;108755;1260;59005;-78
2024/03/15 05:58:51;;;;;;;61.70;35.20;;;;;;;2.43;100.00;98876.36;108994;1260;62814;-78
2024/03/15 06:01:17;;;;;;;57.70;36.90;;;;;;;2.51;100.00;98875.19;108944;1260;59024;-77
2024/03/15 06:03:44;;;;;;;52.20;36.40;;;;;;;2.62;100.00;98876.55;108939;1259;59091;-83
2024/03/15 06:06:10;;;;;;;47.30;34.90;;;;;;;2.75;100.00;98875.40;108997;1260;66139;-76
2024/03/15 06:08:37;;;;;;;49.80;35.40;;;;;;;2.83;100.00;98873.67;108958;1259;59080;-76
2024/03/15 06:11:06;;;;;;;47.60;33.90;;;;;;;2.94;100.00;98875.36;108924;1260;63939;-78
2024/03/15 06:13:33;;;;;;;49.60;33.00;;;;;;;3.06;100.00;98876.31;108971;1259;59106;-76
2024/03/15 06:15:59;;;;;;;46.10;33.80;;;;;;;3.17;100.00;98875.91;108938;1259;59204;-76
2024/03/15 06:18:26;;;;;;;43.70;32.40;;;;;;;3.22;100.00;98878.69;108977;1259;65944;-76
2024/03/15 06:20:52;;;;;;;45.10;31.90;;;;;;;3.21;100.00;98876.64;108920;1260;59009;-76
2024/03/15 06:23:19;;;;;;;45.20;34.10;;;;;;;3.23;100.00;98877.27;108913;1260;62543;-74
2024/03/15 06:25:47;;;;;;;47.60;36.80;;;;;;;3.26;100.00;98876.25;108948;1259;59292;-77
2024/03/15 06:28:13;;;;;;;46.70;36.10;;;;;;;3.39;100.00;98879.27;108951;1260;58919;-78
2024/03/15 06:30:45;;;;;;;48.20;37.90;;;;;;;3.55;100.00;98879.34;108958;1260;64528;-76
2024/03/15 06:33:11;;;;;;;44.00;32.20;;;;;;;3.63;100.00;98877.59;108954;1260;60346;-77
2024/03/15 06:35:38;;;;;;;43.10;30.50;;;;;;;3.59;100.00;98877.04;108969;1260;64143;-76
2024/03/15 06:38:17;;;;;;;48.90;32.80;;;;;;;3.61;100.00;98877.50;108909;1259;59186;-75
2024/03/15 06:40:55;;;;;;;41.10;30.60;;;;;;;3.67;100.00;98879.69;108959;1259;59040;-76
2024/03/15 06:43:35;;;;;;;43.70;32.10;;;;;;;3.76;100.00;98879.17;108987;1260;66125;-75
2024/03/15 06:46:08;;;;;;;46.10;36.50;;;;;;;3.82;100.00;98880.14;108965;1260;60134;-75
2024/03/15 06:48:44;;;;;;;41.40;33.30;;;;;;;3.93;100.00;98884.09;108965;1260;64173;-76
2024/03/15 06:53:56;;;;;;;41.50;32.30;;;;;;;4.20;100.00;98881.91;108967;1260;59128;-77
2024/03/15 06:56:23;;;;;;;39.80;32.30;;;;;;;4.26;100.00;98879.16;108743;1260;66043;-76
2024/03/15 06:58:49;;;;;;;43.00;32.80;;;;;;;4.34;100.00;98877.60;108950;1260;59310;-75
2024/03/15 07:01:16;;;;;;;44.20;32.70;;;;;;;4.41;100.00;98881.38;108960;1259;64175;-76
2024/03/15 07:03:43;;;;;;;46.40;33.00;;;;;;;4.40;100.00;98882.61;108926;1260;59049;-77
2024/03/15 07:06:10;;;;;;;47.70;33.40;;;;;;;4.44;100.00;98880.88;108957;1260;58989;-76
2024/03/15 07:08:37;;;;;;;50.20;34.10;;;;;;;4.48;100.00;98878.06;108928;1260;65779;-76
2024/03/15 07:11:04;;;;;;;50.20;31.60;;;;;;;4.52;100.00;98886.67;108958;1259;59853;-77
2024/03/15 07:13:31;;;;;;;43.70;32.50;;;;;;;4.57;100.00;98883.98;108929;1260;62530;-77
2024/03/15 07:15:57;;;;;;;40.90;31.20;;;;;;;4.63;100.00;98884.96;108978;1260;59016;-77
2024/03/15 07:18:24;;;;;;;41.70;31.40;;;;;;;4.68;100.00;98884.55;108964;1260;59102;-73
2024/03/15 07:20:50;;;;;;;43.40;31.90;;;;;;;4.73;100.00;98887.48;108967;1260;58921;-77
2024/03/15 07:23:17;;;;;;;42.90;33.20;;;;;;;4.79;100.00;98885.10;108852;1260;59137;-77
2024/03/15 07:25:43;;;;;;;39.80;31.90;;;;;;;4.86;100.00;98884.80;108973;1260;63763;-76
2024/03/15 07:28:10;;;;;;;43.70;31.40;;;;;;;5.03;100.00;98887.19;108930;1260;59009;-76
2024/03/15 07:30:36;;;;;;;41.20;31.90;;;;;;;5.21;100.00;98882.86;108965;1260;59248;-77
2024/03/15 07:33:03;;;;;;;42.30;31.80;;;;;;;5.35;100.00;98882.89;108738;1260;64849;-75
2024/03/15 07:35:31;;;;;;;41.20;32.00;;;;;;;5.39;100.00;98886.02;108958;1259;60122;-77
2024/03/15 07:37:58;;;;;;;36.50;31.30;;;;;;;5.40;100.00;98886.70;108804;1260;62883;-76
2024/03/15 07:40:25;;;;;;;42.00;31.60;;;;;;;5.29;100.00;98887.59;108948;1263;59047;-76
2024/03/15 07:42:53;;;;;;;40.00;30.90;;;;;;;5.20;100.00;98886.77;108954;1259;58972;-78
2024/03/15 07:45:20;;;;;;;39.30;31.90;;;;;;;5.22;100.00;98888.77;108962;1260;66062;-76
2024/03/15 07:47:46;;;;;;;42.20;31.40;;;;;;;5.22;100.00;98890.52;108951;1260;60260;-77
2024/03/15 07:50:13;;;;;;;37.40;32.50;;;;;;;5.25;100.00;98888.61;108972;1259;65223;-77
2024/03/15 07:52:39;;;;;;;40.80;31.90;;;;;;;5.33;100.00;98889.15;108973;1259;58954;-78
2024/03/15 07:55:06;;;;;;;39.40;32.30;;;;;;;5.36;100.00;98889.70;108947;1260;58967;-76
2024/03/15 07:57:33;;;;;;;41.40;28.90;;;;;;;5.37;100.00;98891.95;108967;1260;66499;-76
2024/03/15 07:59:59;;;;;;;42.40;30.50;;;;;;;5.40;100.00;98892.52;108951;1260;59007;-77
2024/03/15 08:02:26;;;;;;;37.30;30.90;;;;;;;5.41;100.00;98894.75;108936;1260;59111;-77
2024/03/15 08:04:52;;;;;;;36.80;29.80;;;;;;;5.38;100.00;98893.46;108968;1259;58972;-78
2024/03/15 08:07:20;;;;;;;38.80;29.60;;;;;;;5.44;100.00;98893.71;108971;1260;59021;-75
2024/03/15 08:09:46;;;;;;;38.60;31.00;;;;;;;5.49;100.00;98891.71;108974;1259;66017;-77
2024/03/15 08:12:16;;;;;;;35.60;29.90;;;;;;;5.57;100.00;98893.98;108947;1260;58991;-76
2024/03/15 08:14:42;;;;;;;39.10;31.60;;;;;;;5.66;100.00;98892.14;108957;1259;62893;-77
2024/03/15 08:17:09;;;;;;;40.10;30.90;;;;;;;5.71;100.00;98891.52;108964;1259;59012;-76
2024/03/15 08:19:35;;;;;;;43.30;33.20;;;;;;;5.76;100.00;98890.92;108972;1260;59020;-78
2024/03/15 08:22:02;;;;;;;41.50;33.80;;;;;;;5.84;100.00;98887.21;109004;1260;59086;-77
2024/03/15 08:24:28;;;;;;;44.00;35.50;;;;;;;5.89;100.00;98886.96;108959;1260;58972;-76
2024/03/15 08:26:54;;;;;;;40.90;32.90;;;;;;;6.01;100.00;98888.86;108946;1259;59001;-77
2024/03/15 08:29:21;;;;;;;42.80;32.90;;;;;;;6.07;100.00;98887.32;108743;1260;59296;-75
2024/03/15 08:31:48;;;;;;;39.70;32.20;;;;;;;6.08;100.00;98884.27;108923;1260;59008;-77
2024/03/15 08:34:14;;;;;;;39.10;29.70;;;;;;;6.12;100.00;98880.00;108160;1259;1002093;-76
2024/03/15 08:36:41;;;;;;;37.00;30.10;;;;;;;6.18;100.00;98883.63;108992;1260;60168;-78
2024/03/15 08:39:12;;;;;;;35.60;30.10;;;;;;;6.24;100.00;98881.73;108910;1259;59059;-76
2024/03/15 08:41:42;;;;;;;39.60;30.80;;;;;;;6.40;100.00;98881.96;108951;1260;59041;-78
2024/03/15 08:44:09;;;;;;;42.40;31.00;;;;;;;6.58;100.00;98877.48;108944;1260;59100;-76
2024/03/15 08:46:36;;;;;;;38.00;30.10;;;;;;;6.76;100.00;98874.23;108955;1260;64483;-74
2024/03/15 08:49:03;;;;;;;35.00;28.40;;;;;;;6.88;100.00;98876.61;108934;1260;60310;-74
2024/03/15 08:51:29;;;;;;;37.60;29.50;;;;;;;6.97;100.00;98875.73;108952;1259;59344;-74
2024/03/15 08:53:57;;;;;;;36.20;29.70;;;;;;;7.11;100.00;98870.89;108943;1260;59031;-75
2024/03/15 08:56:24;;;;;;;50.00;35.50;;;;;;;7.24;100.00;98872.17;108958;1260;59022;-75
2024/03/15 08:58:51;;;;;;;45.00;32.00;;;;;;;7.37;100.00;98869.48;109002;1260;64856;-74
2024/03/15 09:01:27;;;;;;;37.70;31.00;;;;;;;7.54;100.00;98868.40;108996;1260;60154;-74
2024/03/15 09:03:53;;;;;;;41.20;31.90;;;;;;;7.64;100.00;98868.13;108960;1260;64195;-74
2024/03/15 09:06:19;;;;;;;42.10;35.20;;;;;;;7.75;100.00;98866.63;108917;1260;59320;-74
2024/03/15 09:08:54;;;;;;;53.60;42.70;;;;;;;7.86;100.00;98866.17;108979;1259;58965;-75
2024/03/15 09:11:21;;;;;;;37.70;31.20;;;;;;;7.94;100.00;98865.20;108972;1260;66180;-74
2024/03/15 09:13:47;;;;;;;42.80;36.70;;;;;;;8.00;100.00;98859.86;108995;1260;59040;-75
2024/03/15 09:16:13;;;;;;;36.30;30.00;;;;;;;8.14;100.00;98858.31;108879;1260;59440;-73
2024/03/15 09:18:41;;;;;;;34.50;29.60;;;;;;;8.22;100.00;98856.80;108937;1259;58970;-75
2024/03/15 09:21:08;;;;;;;35.30;30.00;;;;;;;8.20;100.00;98858.52;108959;1260;59049;-74
2024/03/15 09:23:35;;;;;;;38.40;31.50;;;;;;;8.21;100.00;98853.52;108944;1260;75511;-75
2024/03/15 09:26:02;;;;;;;35.80;29.50;;;;;;;8.29;100.00;98852.83;108937;1259;58951;-74
2024/03/15 09:28:33;;;;;;;34.60;29.40;;;;;;;8.42;100.00;98854.59;108800;1260;64053;-74
2024/03/15 09:31:08;;;;;;;33.90;30.10;;;;;;;8.49;100.00;98855.05;108924;1260;59001;-74
2024/03/15 09:33:35;;;;;;;36.80;29.50;;;;;;;8.54;100.00;98854.73;108838;1259;59097;-74
2024/03/15 09:36:05;;;;;;;34.90;31.10;;;;;;;8.64;100.00;98853.77;108817;1259;65745;-74
2024/03/15 09:38:34;;;;;;;34.20;30.00;;;;;;;8.80;100.00;98847.86;108978;1260;60181;-75
2024/03/15 09:41:00;;;;;;;36.50;31.60;;;;;;;8.99;100.00;98846.67;108925;1260;63805;-74
2024/03/15 09:43:27;;;;;;;34.50;28.70;;;;;;;9.16;100.00;98842.76;108943;1259;59447;-74
2024/03/15 09:45:54;;;;;;;31.60;28.20;;;;;;;9.26;100.00;98837.30;108821;1260;172397;-74
2024/03/15 09:48:56;;;;;;;30.20;26.50;;;;;;;9.38;100.00;98838.50;102566;1294;601077;-75
2024/03/15 09:51:22;;;;;;;33.80;29.10;;;;;;;9.41;100.00;98839.05;104965;1269;59633;-74
2024/03/15 09:53:49;;;;;;;30.20;25.50;;;;;;;9.48;100.00;98838.76;104985;1268;59645;-75
2024/03/15 09:56:19;;;;;;;31.90;28.50;;;;;;;9.54;100.00;98835.33;105009;1269;59699;-74
2024/03/15 09:58:51;;;;;;;34.30;28.40;;;;;;;9.65;100.00;98828.72;105030;1267;60821;-75
2024/03/15 10:01:18;;;;;;;34.30;29.20;;;;;;;9.80;100.00;98828.80;104519;1266;152140;-74
2024/03/15 10:03:48;;;;;;;33.80;28.30;;;;;;;9.87;100.00;98827.97;105121;1266;59572;-74
2024/03/15 10:06:21;;;;;;;30.30;27.00;;;;;;;9.92;100.00;98827.15;105108;1265;59637;-74
2024/03/15 10:08:48;;;;;;;29.20;25.70;;;;;;;9.96;100.00;98827.56;105127;1266;65126;-74
2024/03/15 10:11:15;;;;;;;30.70;26.60;;;;;;;10.06;100.00;98824.76;105113;1265;69051;-73
2024/03/15 10:13:41;;;;;;;34.60;28.80;;;;;;;10.19;100.00;98823.05;105112;1265;64741;-76
2024/03/15 10:16:08;;;;;;;33.00;28.20;;;;;;;10.25;100.00;98820.49;105024;1269;60614;-74
2024/03/15 10:18:38;;;;;;;31.90;27.90;;;;;;;10.32;100.00;98818.77;104963;1264;60340;-75
2024/03/15 10:21:05;;;;;;;36.10;29.60;;;;;;;10.41;100.00;98815.90;105080;1269;65886;-74
2024/03/15 10:23:32;;;;;;;37.10;31.00;;;;;;;10.48;100.00;98811.27;105061;1263;61000;-73
2024/03/15 10:25:58;;;;;;;34.10;30.50;;;;;;;10.56;100.00;98807.34;105167;1265;60476;-75
2024/03/15 10:28:25;;;;;;;35.00;28.50;;;;;;;10.67;100.00;98809.93;105136;1263;60483;-74
2024/03/15 10:30:55;;;;;;;39.00;30.90;;;;;;;10.79;100.00;98808.76;105304;1264;60450;-75
2024/03/15 10:33:22;;;;;;;38.80;32.40;;;;;;;10.98;100.00;98805.29;108876;1262;65341;-76
2024/03/15 10:35:48;;;;;;;31.10;27.70;;;;;;;11.18;100.00;98803.10;108798;1263;60139;-74
2024/03/15 10:38:15;;;;;;;33.50;27.70;;;;;;;11.34;100.00;98806.77;108642;1263;58288;-75
2024/03/15 10:40:43;;;;;;;32.80;28.10;;;;;;;11.40;100.00;98807.23;108834;1263;58193;-74
2024/03/15 10:43:12;;;;;;;33.90;29.10;;;;;;;11.54;100.00;98803.16;108872;1263;58188;-75
2024/03/15 10:45:41;;;;;;;33.30;28.40;;;;;;;11.68;100.00;98799.83;108856;1261;65293;-75
2024/03/15 10:48:09;;;;;;;35.70;28.90;;;;;;;11.83;100.00;98796.58;108860;1263;59993;-75
2024/03/15 10:50:38;;;;;;;31.70;27.60;;;;;;;11.96;100.00;98792.23;108862;1261;63791;-75
2024/03/15 10:53:09;;;;;;;29.60;26.40;;;;;;;12.11;100.00;98791.65;108831;1261;58142;-75
2024/03/15 10:55:36;;;;;;;29.70;26.50;;;;;;;12.27;100.00;98787.54;108838;1263;58041;-75
2024/03/15 10:58:06;;;;;;;31.50;27.70;;;;;;;12.42;100.00;98782.81;108850;1262;65293;-75
2024/03/15 11:00:32;;;;;;;;;;;;;;;12.59;100.00;98781.45;108865;1263;58642;-74
2024/03/15 11:03:12;;;;;;;29.10;25.80;;;;;;;12.74;100.00;98782.09;108840;1261;58290;-74
2024/03/15 11:05:38;;;;;;;28.50;25.60;;;;;;;12.86;100.00;98783.96;108877;1265;58519;-74
2024/03/15 11:08:08;;;;;;;29.80;26.30;;;;;;;12.97;100.00;98780.09;108694;1263;58378;-74
2024/03/15 11:10:38;;;;;;;27.70;23.50;;;;;;;13.18;100.00;98778.72;108849;1262;63712;-73